Time;durP1;ratioP1;P1;durP2;ratioP2;P2;SDS_P1;SDS_P2;PMS_P1;PMS_P2;Temp;Humidity;BMP_temperature;BMP_pressure;BME280_temperature;BME280_humidity;BME280_pressure;Samples;Min_cycle;Max_cycle;Signal;HPM_P1;HPM_P2
2023/06/24 00:01:25;;;;;;;4.75;2.55;;;24.40;68.80;;;;;;5070903;28;20024;-75
2023/06/24 00:03:53;;;;;;;4.13;2.28;;;24.10;68.90;;;;;;5080324;28;20118;-75
2023/06/24 00:06:19;;;;;;;3.92;2.25;;;24.20;68.70;;;;;;5074545;28;20037;-75
2023/06/24 00:08:46;;;;;;;5.30;2.13;;;24.30;68.50;;;;;;5070240;28;20043;-75
2023/06/24 00:11:13;;;;;;;27.42;4.05;;;24.20;69.10;;;;;;5084140;28;20028;-75
2023/06/24 00:13:39;;;;;;;5.75;2.42;;;24.20;69.00;;;;;;5081911;28;20071;-75
2023/06/24 00:16:08;;;;;;;5.00;2.78;;;24.30;69.10;;;;;;5084541;28;20032;-75
2023/06/24 00:18:35;;;;;;;4.80;2.47;;;24.30;68.90;;;;;;5071222;28;20043;-75
2023/06/24 00:21:01;;;;;;;5.28;2.38;;;24.20;68.80;;;;;;5079558;28;20028;-75
2023/06/24 00:23:30;;;;;;;3.88;1.95;;;24.30;68.70;;;;;;5077242;28;20044;-75
2023/06/24 00:25:56;;;;;;;3.55;1.70;;;24.10;69.10;;;;;;5071963;28;20029;-75
2023/06/24 00:28:22;;;;;;;5.35;2.08;;;24.00;69.30;;;;;;5078778;28;20035;-75
2023/06/24 00:30:49;;;;;;;4.63;2.25;;;24.10;69.30;;;;;;5086549;28;20111;-75
2023/06/24 00:33:16;;;;;;;4.43;2.20;;;24.00;69.30;;;;;;5072663;28;20085;-75
2023/06/24 00:35:42;;;;;;;4.22;2.38;;;24.00;69.90;;;;;;5085142;28;20025;-75
2023/06/24 00:38:08;;;;;;;3.47;1.70;;;24.00;69.60;;;;;;5070841;28;20085;-75
2023/06/24 00:40:35;;;;;;;4.50;2.10;;;23.90;69.30;;;;;;5083842;28;20032;-75
2023/06/24 00:43:01;;;;;;;4.03;1.95;;;23.70;69.90;;;;;;5075980;28;20064;-75
2023/06/24 00:45:29;;;;;;;4.95;2.28;;;23.80;69.50;;;;;;5071956;28;20043;-75
2023/06/24 00:47:56;;;;;;;4.70;2.05;;;23.80;69.70;;;;;;5082120;28;20051;-75
2023/06/24 00:50:22;;;;;;;3.70;1.92;;;23.80;69.20;;;;;;5074326;28;20030;-75
2023/06/24 00:52:49;;;;;;;4.63;2.22;;;23.70;69.80;;;;;;5080228;28;20028;-75
2023/06/24 00:55:15;;;;;;;4.18;2.22;;;23.70;69.90;;;;;;5074837;28;20028;-75
2023/06/24 00:57:50;;;;;;;3.85;1.88;;;23.80;69.40;;;;;;5078077;28;20197;-75
2023/06/24 01:00:18;;;;;;;4.82;2.10;;;23.90;69.50;;;;;;5071297;28;20024;-75
2023/06/24 01:02:47;;;;;;;3.88;1.95;;;23.90;69.20;;;;;;5083917;28;20026;-75
2023/06/24 01:05:14;;;;;;;5.80;2.33;;;23.80;69.60;;;;;;5072286;28;20081;-75
2023/06/24 01:07:41;;;;;;;4.72;2.08;;;23.70;69.80;;;;;;5072828;28;20025;-75
2023/06/24 01:10:08;;;;;;;4.00;2.00;;;23.70;69.90;;;;;;5077579;28;20111;-75
2023/06/24 01:12:38;;;;;;;3.58;1.90;;;23.40;70.70;;;;;;5080876;28;20115;-75
2023/06/24 01:15:06;;;;;;;4.28;1.90;;;23.50;70.10;;;;;;5085056;28;20032;-75
2023/06/24 01:17:53;;;;;;;4.80;2.30;;;23.60;69.80;;;;;;5078315;28;20051;-75
2023/06/24 01:20:38;;;;;;;5.75;2.20;;;23.50;70.50;;;;;;5068506;28;20028;-75
2023/06/24 01:23:25;;;;;;;4.60;2.30;;;23.60;69.70;;;;;;5082019;28;20024;-75
2023/06/24 01:25:59;;;;;;;4.38;1.83;;;23.60;69.80;;;;;;5068007;28;20021;-76
2023/06/24 01:28:45;;;;;;;7.20;2.10;;;23.70;69.70;;;;;;5077580;28;20047;-76
2023/06/24 01:31:35;;;;;;;4.00;1.70;;;23.60;69.70;;;;;;5071609;28;20101;-75
2023/06/24 01:34:20;;;;;;;3.40;1.60;;;23.60;69.70;;;;;;5074328;28;20033;-76
2023/06/24 01:37:10;;;;;;;6.13;2.00;;;23.70;69.60;;;;;;5078010;28;20493;-75
2023/06/24 01:39:42;;;;;;;4.75;2.03;;;23.70;69.20;;;;;;5079249;28;20027;-75
2023/06/24 01:42:11;;;;;;;6.72;1.95;;;23.70;69.70;;;;;;5070965;28;20028;-75
2023/06/24 01:44:40;;;;;;;2.75;1.30;;;23.60;70.00;;;;;;5073094;28;20224;-75
2023/06/24 01:47:08;;;;;;;2.47;1.30;;;23.50;69.90;;;;;;5076005;28;20025;-75
2023/06/24 01:49:38;;;;;;;3.08;1.27;;;23.60;69.80;;;;;;5076868;28;20109;-75
2023/06/24 01:52:05;;;;;;;3.00;1.40;;;23.60;69.30;;;;;;5077563;28;20024;-75
2023/06/24 01:54:31;;;;;;;3.30;1.67;;;23.60;69.50;;;;;;5081830;28;20035;-75
2023/06/24 01:56:59;;;;;;;2.67;1.30;;;23.50;69.90;;;;;;5078997;28;20505;-75
2023/06/24 01:59:28;;;;;;;4.13;1.20;;;23.70;69.20;;;;;;5079956;28;20036;-75
2023/06/24 02:01:55;;;;;;;5.00;1.50;;;23.50;70.30;;;;;;5072943;28;20494;-75
2023/06/24 02:04:21;;;;;;;4.80;1.25;;;23.40;69.80;;;;;;5075156;28;20497;-75
2023/06/24 02:06:49;;;;;;;5.60;1.48;;;23.40;69.80;;;;;;5069654;28;20028;-75
2023/06/24 02:09:17;;;;;;;2.97;1.42;;;23.50;69.80;;;;;;5068495;28;20032;-75
2023/06/24 02:11:44;;;;;;;2.95;1.40;;;23.50;69.50;;;;;;5071840;28;20115;-75
2023/06/24 02:14:11;;;;;;;4.32;1.40;;;23.60;69.40;;;;;;5078433;28;20443;-75
2023/06/24 02:16:40;;;;;;;2.55;1.13;;;23.50;69.90;;;;;;5079841;28;20040;-75
2023/06/24 02:19:08;;;;;;;3.08;1.35;;;23.50;69.70;;;;;;5072722;28;20021;-75
2023/06/24 02:21:35;;;;;;;2.28;1.10;;;23.40;69.90;;;;;;5073299;28;20039;-75
2023/06/24 02:24:02;;;;;;;2.63;1.30;;;23.50;69.90;;;;;;5081987;28;20449;-75
2023/06/24 02:26:28;;;;;;;4.65;1.17;;;23.50;69.80;;;;;;5075924;28;20522;-75
2023/06/24 02:28:55;;;;;;;2.70;1.08;;;23.40;70.40;;;;;;5078775;28;20098;-74
2023/06/24 02:31:21;;;;;;;2.55;1.20;;;23.50;69.60;;;;;;5086383;28;20036;-75
2023/06/24 02:33:47;;;;;;;3.42;1.65;;;23.50;69.80;;;;;;5082572;28;20085;-75
2023/06/24 02:36:12;;;;;;;2.28;1.00;;;23.40;70.10;;;;;;5076876;28;20383;-75
2023/06/24 02:38:38;;;;;;;2.75;1.17;;;23.30;70.30;;;;;;5073458;28;20486;-75
2023/06/24 02:41:04;;;;;;;3.22;0.90;;;23.30;70.40;;;;;;5074894;28;20032;-75
2023/06/24 02:43:31;;;;;;;1.63;0.95;;;23.40;69.70;;;;;;5074636;28;20073;-75
2023/06/24 02:46:00;;;;;;;1.55;0.70;;;23.60;69.80;;;;;;5069552;28;20033;-75
2023/06/24 02:48:28;;;;;;;2.08;0.98;;;23.50;70.00;;;;;;5082259;28;20024;-75
2023/06/24 02:50:54;;;;;;;2.15;0.70;;;23.30;70.10;;;;;;5071986;28;20056;-75
2023/06/24 02:53:20;;;;;;;3.55;0.95;;;23.40;69.90;;;;;;5078875;28;20322;-75
2023/06/24 02:55:46;;;;;;;3.50;0.85;;;23.40;70.00;;;;;;5083319;28;20037;-75
2023/06/24 02:58:12;;;;;;;2.55;1.25;;;23.30;70.50;;;;;;5080521;28;20089;-75
2023/06/24 03:00:38;;;;;;;2.42;1.00;;;23.00;70.80;;;;;;5082692;28;20478;-74
2023/06/24 03:03:04;;;;;;;2.55;1.13;;;22.80;71.90;;;;;;5076743;28;20062;-73
2023/06/24 03:05:32;;;;;;;2.22;1.05;;;22.70;71.60;;;;;;5067743;28;20494;-73
2023/06/24 03:07:58;;;;;;;2.85;0.90;;;22.80;71.50;;;;;;5073934;28;20016;-73
2023/06/24 03:10:25;;;;;;;1.73;0.95;;;22.70;72.30;;;;;;5066258;28;20508;-73
2023/06/24 03:12:52;;;;;;;2.50;1.30;;;22.50;72.20;;;;;;5073358;28;20036;-74
2023/06/24 03:15:17;;;;;;;1.88;0.82;;;22.70;71.60;;;;;;5068826;28;20035;-73
2023/06/24 03:17:44;;;;;;;2.38;1.02;;;22.80;71.60;;;;;;5069733;28;20386;-73
2023/06/24 03:20:10;;;;;;;2.13;0.93;;;22.80;71.30;;;;;;5074944;28;20043;-74
2023/06/24 03:22:36;;;;;;;2.13;1.25;;;22.60;72.50;;;;;;5064971;28;20027;-73
2023/06/24 03:25:02;;;;;;;1.98;0.90;;;22.60;72.00;;;;;;5068922;28;20648;-73
2023/06/24 03:27:28;;;;;;;2.28;1.00;;;22.60;72.10;;;;;;5070037;28;20043;-74
2023/06/24 03:29:53;;;;;;;3.25;1.27;;;22.50;72.00;;;;;;5067507;28;20032;-73
2023/06/24 03:32:19;;;;;;;1.60;0.90;;;22.60;71.80;;;;;;5070656;28;20089;-73
2023/06/24 03:34:45;;;;;;;1.98;1.00;;;22.70;71.80;;;;;;5076784;28;20032;-74
2023/06/24 03:37:11;;;;;;;1.38;0.70;;;22.70;71.70;;;;;;5071948;28;20028;-73
2023/06/24 03:39:36;;;;;;;2.70;1.10;;;22.90;71.40;;;;;;5078375;28;20028;-73
2023/06/24 03:42:02;;;;;;;1.77;1.00;;;22.80;71.50;;;;;;5069028;28;20028;-74
2023/06/24 03:44:28;;;;;;;2.60;0.98;;;22.80;71.70;;;;;;5066573;28;20076;-73
2023/06/24 03:46:53;;;;;;;1.95;0.80;;;22.90;71.20;;;;;;5082910;28;20399;-73
2023/06/24 03:49:19;;;;;;;2.13;1.00;;;22.90;71.50;;;;;;5074222;28;20443;-73
2023/06/24 03:51:45;;;;;;;3.08;1.00;;;22.90;71.40;;;;;;5073912;28;20028;-73
2023/06/24 03:54:10;;;;;;;1.98;0.90;;;22.90;71.90;;;;;;5070737;28;20063;-74
2023/06/24 03:56:36;;;;;;;4.57;1.05;;;22.90;71.60;;;;;;5079157;28;20052;-73
2023/06/24 03:59:02;;;;;;;4.88;1.20;;;22.90;72.10;;;;;;5068566;28;20067;-73
2023/06/24 04:01:31;;;;;;;1.77;0.80;;;22.90;72.00;;;;;;5069648;28;20058;-73
2023/06/24 04:04:00;;;;;;;1.58;0.90;;;22.80;72.40;;;;;;5068611;28;20367;-73
2023/06/24 04:06:25;;;;;;;2.47;1.00;;;22.80;72.00;;;;;;5070551;28;20031;-73
2023/06/24 04:08:51;;;;;;;1.55;0.63;;;22.60;72.70;;;;;;5070453;28;20115;-73
2023/06/24 04:11:18;;;;;;;1.67;0.77;;;22.50;72.70;;;;;;5067256;28;20126;-73
2023/06/24 04:13:45;;;;;;;2.38;0.80;;;22.60;72.90;;;;;;5077205;28;20374;-73
2023/06/24 04:16:11;;;;;;;1.35;0.70;;;22.70;72.30;;;;;;5077262;28;20070;-73
2023/06/24 04:18:39;;;;;;;2.03;0.85;;;22.70;73.10;;;;;;5077381;28;20312;-73
2023/06/24 04:21:06;;;;;;;1.92;0.63;;;22.60;73.20;;;;;;5070351;28;20016;-72
2023/06/24 04:23:32;;;;;;;2.28;0.73;;;22.60;72.50;;;;;;5079961;28;20048;-73
2023/06/24 04:25:58;;;;;;;1.35;0.65;;;22.80;72.40;;;;;;5070738;28;20093;-73
2023/06/24 04:28:24;;;;;;;1.20;0.52;;;22.80;72.60;;;;;;5074249;28;20034;-73
2023/06/24 04:30:50;;;;;;;5.18;0.50;;;22.80;72.80;;;;;;5068735;28;20036;-73
2023/06/24 04:33:15;;;;;;;1.88;0.73;;;22.70;72.60;;;;;;5072706;28;20105;-73
2023/06/24 04:35:41;;;;;;;2.70;0.90;;;22.70;72.40;;;;;;5064926;28;20024;-72
2023/06/24 04:38:07;;;;;;;1.50;0.80;;;22.50;73.50;;;;;;5064857;28;20039;-72
2023/06/24 04:40:32;;;;;;;2.30;0.90;;;22.60;73.50;;;;;;5063703;28;20032;-73
2023/06/24 04:42:58;;;;;;;1.98;0.90;;;22.50;72.90;;;;;;5074312;28;20028;-73
2023/06/24 04:45:23;;;;;;;2.10;1.15;;;22.50;73.30;;;;;;5067218;28;20024;-73
2023/06/24 04:47:49;;;;;;;1.55;0.75;;;22.50;73.60;;;;;;5063946;28;20032;-73
2023/06/24 04:50:15;;;;;;;1.85;1.00;;;22.40;73.40;;;;;;5075635;28;20064;-73
2023/06/24 04:52:41;;;;;;;1.13;0.43;;;22.60;73.20;;;;;;5065761;28;20078;-73
2023/06/24 04:55:07;;;;;;;1.65;0.77;;;22.60;74.00;;;;;;5070415;28;20024;-73
2023/06/24 04:57:34;;;;;;;1.25;0.57;;;22.60;72.90;;;;;;5074634;28;20059;-73
2023/06/24 05:00:00;;;;;;;2.20;0.57;;;22.70;73.20;;;;;;5073030;28;20028;-73
2023/06/24 05:02:25;;;;;;;1.75;0.50;;;22.50;74.00;;;;;;5070409;28;20085;-73
2023/06/24 05:04:52;;;;;;;1.77;0.73;;;22.60;72.90;;;;;;5073567;28;20040;-73
2023/06/24 05:07:18;;;;;;;2.45;0.88;;;22.70;73.00;;;;;;5063351;28;20521;-73
2023/06/24 05:09:46;;;;;;;2.03;0.65;;;22.70;73.60;;;;;;5070077;28;20055;-73
2023/06/24 05:12:12;;;;;;;2.13;0.90;;;22.60;73.70;;;;;;5070208;28;20047;-73
2023/06/24 05:14:38;;;;;;;7.50;0.80;;;22.70;72.80;;;;;;5076543;28;20036;-73
2023/06/24 05:17:04;;;;;;;1.02;0.47;;;22.70;73.60;;;;;;5069823;28;20135;-73
2023/06/24 05:19:30;;;;;;;1.98;0.73;;;22.50;73.60;;;;;;5070470;28;20036;-73
2023/06/24 05:21:55;;;;;;;3.92;0.70;;;22.60;73.30;;;;;;5072972;28;20058;-73
2023/06/24 05:24:21;;;;;;;1.27;0.68;;;22.70;73.70;;;;;;5068874;28;20635;-73
2023/06/24 05:26:49;;;;;;;1.65;0.60;;;22.60;74.50;;;;;;5060706;28;20033;-73
2023/06/24 05:29:15;;;;;;;1.42;0.77;;;22.30;75.20;;;;;;5068918;28;20039;-73
2023/06/24 05:31:41;;;;;;;3.05;0.60;;;22.50;74.20;;;;;;5069556;28;20032;-73
2023/06/24 05:34:07;;;;;;;2.55;0.80;;;22.60;75.50;;;;;;5062375;28;20524;-73
2023/06/24 05:36:33;;;;;;;1.48;0.60;;;22.50;74.10;;;;;;5061067;28;20047;-73
2023/06/24 05:38:59;;;;;;;1.83;0.98;;;22.50;74.50;;;;;;5061508;28;20104;-73
2023/06/24 05:41:25;;;;;;;2.67;0.65;;;22.60;74.30;;;;;;5064612;28;20056;-73
2023/06/24 05:44:02;;;;;;;1.65;0.68;;;22.60;74.70;;;;;;5066069;28;20041;-73
2023/06/24 05:46:27;;;;;;;1.38;0.52;;;22.60;74.30;;;;;;5067330;28;20040;-73
2023/06/24 05:48:53;;;;;;;1.50;0.60;;;22.70;74.10;;;;;;5080657;28;20093;-70
2023/06/24 05:51:19;;;;;;;2.15;0.85;;;22.70;74.20;;;;;;5066489;28;20098;-72
2023/06/24 05:53:44;;;;;;;6.53;0.90;;;22.70;74.00;;;;;;5073037;28;20137;-71
2023/06/24 05:56:10;;;;;;;1.38;0.70;;;22.60;75.30;;;;;;5068397;28;20120;-70
2023/06/24 05:58:35;;;;;;;1.40;0.57;;;22.80;73.80;;;;;;5061992;28;20422;-72
2023/06/24 06:01:01;;;;;;;1.92;0.77;;;22.90;74.10;;;;;;5075197;28;20027;-74
2023/06/24 06:03:27;;;;;;;1.33;0.70;;;22.80;75.00;;;;;;5072332;28;20121;-72
2023/06/24 06:05:53;;;;;;;1.23;0.50;;;22.90;74.50;;;;;;5070502;28;20103;-75
2023/06/24 06:08:19;;;;;;;3.40;1.10;;;22.90;74.30;;;;;;5066835;28;20035;-74
2023/06/24 06:10:44;;;;;;;2.63;0.70;;;22.90;74.60;;;;;;5073987;28;20032;-74
2023/06/24 06:13:10;;;;;;;3.65;0.73;;;23.00;74.40;;;;;;5068427;28;21163;-75
2023/06/24 06:15:36;;;;;;;1.65;0.90;;;23.00;74.80;;;;;;5076143;28;20035;-75
2023/06/24 06:18:01;;;;;;;2.83;0.85;;;23.00;75.30;;;;;;5063653;28;20375;-73
2023/06/24 06:20:27;;;;;;;7.35;1.08;;;22.90;76.70;;;;;;5077091;28;20035;-73
2023/06/24 06:22:53;;;;;;;38.67;3.20;;;22.90;78.00;;;;;;5070980;28;20119;-73
2023/06/24 06:25:18;;;;;;;7.13;0.82;;;22.80;77.30;;;;;;5064943;28;20071;-73
2023/06/24 06:27:44;;;;;;;2.72;0.85;;;22.90;76.70;;;;;;5064754;28;20025;-75
2023/06/24 06:30:10;;;;;;;17.85;1.45;;;23.00;78.40;;;;;;5074830;28;20401;-75
2023/06/24 06:32:36;;;;;;;2.15;0.70;;;22.90;80.30;;;;;;5078164;28;20024;-75
2023/06/24 06:35:02;;;;;;;8.10;1.27;;;23.00;78.50;;;;;;5069321;28;20108;-74
2023/06/24 06:37:28;;;;;;;5.88;1.00;;;23.10;80.30;;;;;;5065463;28;20056;-75
2023/06/24 06:39:53;;;;;;;3.58;0.80;;;23.00;79.20;;;;;;5071289;28;20020;-75
2023/06/24 06:42:19;;;;;;;4.55;0.85;;;23.10;80.00;;;;;;5078896;28;21044;-75
2023/06/24 06:44:45;;;;;;;3.08;0.50;;;23.20;81.80;;;;;;5070803;28;20050;-76
2023/06/24 06:47:11;;;;;;;1.83;0.93;;;23.30;76.80;;;;;;5067498;28;20047;-74
2023/06/24 06:49:36;;;;;;;5.78;0.95;;;23.30;76.30;;;;;;5066487;28;20039;-73
2023/06/24 06:52:02;;;;;;;8.45;0.80;;;23.50;76.20;;;;;;5068106;28;20020;-75
2023/06/24 06:54:28;;;;;;;3.55;0.65;;;23.60;75.90;;;;;;5072577;28;20046;-75
2023/06/24 06:56:55;;;;;;;1.38;0.70;;;23.70;76.30;;;;;;5072635;28;20049;-75
2023/06/24 06:59:21;;;;;;;3.08;0.75;;;23.80;76.40;;;;;;5084045;28;20082;-73
2023/06/24 07:01:46;;;;;;;2.28;0.80;;;24.00;76.70;;;;;;5074165;28;20020;-73
2023/06/24 07:04:12;;;;;;;6.38;0.65;;;24.10;75.20;;;;;;5070097;28;20494;-75
2023/06/24 07:06:38;;;;;;;2.90;0.80;;;24.40;75.80;;;;;;5076347;28;20081;-75
2023/06/24 07:09:03;;;;;;;1.83;0.70;;;24.50;74.70;;;;;;5071851;28;20027;-75
2023/06/24 07:11:29;;;;;;;3.33;0.82;;;24.80;75.20;;;;;;5069454;28;20036;-75
2023/06/24 07:13:55;;;;;;;6.78;1.23;;;24.70;73.80;;;;;;5069277;28;20056;-75
2023/06/24 07:16:20;;;;;;;7.32;1.15;;;24.60;74.90;;;;;;5067769;28;20028;-75
2023/06/24 07:18:46;;;;;;;2.60;0.68;;;24.30;74.30;;;;;;5066451;28;20083;-75
2023/06/24 07:21:12;;;;;;;2.13;0.88;;;24.40;75.20;;;;;;5079810;28;20476;-75
2023/06/24 07:23:37;;;;;;;2.92;0.80;;;24.60;74.50;;;;;;5073261;28;20047;-75
2023/06/24 07:26:03;;;;;;;33.20;3.58;;;24.70;73.20;;;;;;5077369;28;20507;-75
2023/06/24 07:28:29;;;;;;;2.38;0.68;;;24.90;74.60;;;;;;5077598;28;20437;-75
2023/06/24 07:30:54;;;;;;;6.80;0.70;;;24.90;73.70;;;;;;5077491;28;20385;-75
2023/06/24 07:33:20;;;;;;;2.55;0.77;;;25.80;74.60;;;;;;5073217;28;20154;-75
2023/06/24 07:35:46;;;;;;;1.10;0.57;;;27.00;75.30;;;;;;5074338;28;20127;-75
2023/06/24 07:38:12;;;;;;;4.38;1.45;;;27.90;71.10;;;;;;5076478;28;20359;-75
2023/06/24 07:40:37;;;;;;;2.05;0.80;;;28.60;70.30;;;;;;5066541;28;20028;-76
2023/06/24 07:43:03;;;;;;;1.70;0.75;;;29.10;70.20;;;;;;5073271;28;20054;-72
2023/06/24 07:45:29;;;;;;;2.70;0.47;;;29.10;69.30;;;;;;5077824;28;20024;-71
2023/06/24 07:47:54;;;;;;;3.13;0.75;;;28.70;70.00;;;;;;5080306;28;20209;-72
2023/06/24 07:50:20;;;;;;;5.18;1.13;;;28.70;70.40;;;;;;5071267;28;20033;-74
2023/06/24 07:52:46;;;;;;;2.97;0.68;;;28.80;70.30;;;;;;5077923;28;20099;-74
2023/06/24 07:55:11;;;;;;;5.60;0.70;;;28.40;71.50;;;;;;5076952;28;20032;-72
2023/06/24 07:57:37;;;;;;;4.40;0.80;;;27.70;71.80;;;;;;5070076;28;20055;-74
2023/06/24 08:00:09;;;;;;;2.03;0.60;;;27.40;71.70;;;;;;5082176;28;20157;-71
2023/06/24 08:02:34;;;;;;;48.17;3.28;;;27.00;71.50;;;;;;5078465;28;20067;-72
2023/06/24 08:05:00;;;;;;;2.25;1.02;;;27.10;71.80;;;;;;5078236;28;20626;-72
2023/06/24 08:07:26;;;;;;;5.95;1.00;;;26.90;71.50;;;;;;5078751;28;20036;-71
2023/06/24 08:09:51;;;;;;;2.08;0.68;;;26.80;71.20;;;;;;5072245;28;20027;-72
2023/06/24 08:12:17;;;;;;;2.60;0.90;;;27.00;71.60;;;;;;5083775;28;20034;-74
2023/06/24 08:14:43;;;;;;;3.10;1.00;;;27.00;71.80;;;;;;5088498;28;20036;-74
2023/06/24 08:17:08;;;;;;;1.30;0.50;;;27.30;72.90;;;;;;5085838;28;20441;-74
2023/06/24 08:19:34;;;;;;;16.77;1.58;;;27.30;71.00;;;;;;5089308;28;20028;-74
2023/06/24 08:22:00;;;;;;;2.63;0.90;;;26.90;70.90;;;;;;5080407;28;20073;-74
2023/06/24 08:24:26;;;;;;;2.53;1.00;;;26.90;71.00;;;;;;5086583;28;20066;-73
2023/06/24 08:26:53;;;;;;;4.68;0.80;;;27.10;71.80;;;;;;5082127;28;20094;-73
2023/06/24 08:29:18;;;;;;;1.50;0.70;;;27.10;71.40;;;;;;5072293;28;20024;-73
2023/06/24 08:31:44;;;;;;;1.55;0.80;;;26.80;71.10;;;;;;5087898;28;20028;-72
2023/06/24 08:34:10;;;;;;;2.05;0.85;;;27.30;71.30;;;;;;5078264;28;20032;-73
2023/06/24 08:36:37;;;;;;;1.58;0.60;;;27.10;70.60;;;;;;5073565;28;20040;-73
2023/06/24 08:39:02;;;;;;;4.03;0.70;;;27.60;71.60;;;;;;5083548;28;20052;-73
2023/06/24 08:41:28;;;;;;;3.13;0.73;;;27.50;71.20;;;;;;5069537;28;20064;-70
2023/06/24 08:43:54;;;;;;;4.20;0.90;;;27.50;72.40;;;;;;5074439;28;20043;-70
2023/06/24 08:46:23;;;;;;;2.13;0.98;;;27.40;72.20;;;;;;5081335;28;20047;-70
2023/06/24 08:48:53;;;;;;;1.65;0.60;;;27.60;71.30;;;;;;5080957;28;20505;-73
2023/06/24 08:51:22;;;;;;;2.10;0.70;;;27.50;70.80;;;;;;5069840;28;20082;-71
2023/06/24 08:53:48;;;;;;;1.77;0.60;;;27.70;71.00;;;;;;5073401;28;20032;-71
2023/06/24 08:56:15;;;;;;;1.08;0.47;;;27.80;71.20;;;;;;5079588;28;20028;-75
2023/06/24 08:58:41;;;;;;;1.83;0.82;;;28.10;71.30;;;;;;5082615;28;20577;-74
2023/06/24 09:01:07;;;;;;;2.08;1.00;;;28.20;71.70;;;;;;5072200;28;20036;-74
2023/06/24 09:03:34;;;;;;;1.55;0.70;;;28.40;71.10;;;;;;5073032;28;20063;-72
2023/06/24 09:05:59;;;;;;;1.75;0.73;;;28.10;70.00;;;;;;5076653;28;20398;-73
2023/06/24 09:08:25;;;;;;;6.13;1.00;;;27.90;69.70;;;;;;5077163;28;20063;-72
2023/06/24 09:10:55;;;;;;;7.07;0.80;;;28.00;70.00;;;;;;5078426;28;20027;-71
2023/06/24 09:13:22;;;;;;;3.58;0.90;;;28.20;69.90;;;;;;5076259;28;20024;-71
2023/06/24 09:15:48;;;;;;;3.47;0.60;;;28.40;69.80;;;;;;5076155;28;20099;-71
2023/06/24 09:18:17;;;;;;;2.13;0.90;;;28.50;70.10;;;;;;5074413;28;20032;-71
2023/06/24 09:20:45;;;;;;;1.98;1.02;;;28.60;69.50;;;;;;5069857;28;20029;-71
2023/06/24 09:23:11;;;;;;;2.17;0.95;;;28.40;69.90;;;;;;5087099;28;20418;-71
2023/06/24 09:25:37;;;;;;;4.38;0.98;;;28.40;69.30;;;;;;5077793;28;20024;-71
2023/06/24 09:28:03;;;;;;;3.38;0.90;;;28.40;69.20;;;;;;5071638;28;20067;-71
2023/06/24 09:30:29;;;;;;;3.05;0.68;;;28.50;69.20;;;;;;5084437;28;20032;-74
2023/06/24 09:32:55;;;;;;;4.93;0.93;;;28.70;69.00;;;;;;5074555;28;20032;-74
2023/06/24 09:35:23;;;;;;;1.83;0.88;;;28.90;69.80;;;;;;5087401;28;20132;-72
2023/06/24 09:37:56;;;;;;;1.77;0.55;;;29.00;69.90;;;;;;5087659;28;20130;-72
2023/06/24 09:40:22;;;;;;;;;;;29.00;68.70;;;;;;5085784;28;20548;-72
2023/06/24 09:42:51;;;;;;;1.45;0.60;;;28.90;69.60;;;;;;5082721;28;19913;-72
2023/06/24 09:45:27;;;;;;;2.97;0.60;;;29.10;69.60;;;;;;5071561;28;20119;-72
2023/06/24 09:47:53;;;;;;;2.67;0.93;;;29.20;68.90;;;;;;5069888;28;20078;-71
2023/06/24 09:50:19;;;;;;;2.17;0.75;;;29.30;69.20;;;;;;5080086;28;20163;-72
2023/06/24 09:52:46;;;;;;;2.40;0.80;;;29.60;70.80;;;;;;5082320;28;20070;-72
2023/06/24 09:55:17;;;;;;;2.85;1.00;;;29.70;70.00;;;;;;5083445;28;20038;-74
2023/06/24 09:57:46;;;;;;;2.78;0.93;;;29.50;68.70;;;;;;5087044;28;20051;-73
2023/06/24 10:00:17;;;;;;;2.13;1.00;;;29.50;69.10;;;;;;5082658;28;20024;-73
2023/06/24 10:02:44;;;;;;;1.88;0.90;;;29.70;68.40;;;;;;5087447;28;20502;-73
2023/06/24 10:05:11;;;;;;;1.38;0.60;;;30.10;69.10;;;;;;5086720;28;20386;-73
2023/06/24 10:07:37;;;;;;;2.70;0.73;;;29.90;68.10;;;;;;5085180;28;20402;-73
2023/06/24 10:10:03;;;;;;;5.75;0.70;;;30.10;68.60;;;;;;5080587;28;20028;-73
2023/06/24 10:12:29;;;;;;;2.92;0.82;;;30.20;67.80;;;;;;5076992;28;20382;-73
2023/06/24 10:14:55;;;;;;;3.63;0.73;;;30.20;68.80;;;;;;5085367;28;20032;-73
2023/06/24 10:17:21;;;;;;;2.80;0.80;;;29.90;67.30;;;;;;5069206;28;20452;-73
2023/06/24 10:19:46;;;;;;;1.83;0.80;;;29.80;67.80;;;;;;5075497;28;20064;-73
2023/06/24 10:22:14;;;;;;;2.25;0.80;;;29.80;67.50;;;;;;5077777;28;20040;-74
2023/06/24 10:24:42;;;;;;;2.70;0.82;;;30.00;68.50;;;;;;5083589;28;20033;-74
2023/06/24 10:27:21;;;;;;;6.10;1.00;;;30.10;67.60;;;;;;5067898;28;20059;-74
2023/06/24 10:29:48;;;;;;;2.33;1.08;;;30.10;68.40;;;;;;5069500;28;20656;-73
2023/06/24 10:32:15;;;;;;;2.03;0.93;;;30.30;68.10;;;;;;5077415;28;20036;-72
2023/06/24 10:34:41;;;;;;;2.42;1.08;;;30.40;67.80;;;;;;5078844;28;20137;-73
2023/06/24 10:37:07;;;;;;;1.95;0.90;;;30.10;67.80;;;;;;5084801;28;20122;-74
2023/06/24 10:39:54;;;;;;;3.05;0.90;;;30.20;67.50;;;;;;5069033;28;20120;-74
2023/06/24 10:42:35;;;;;;;1.77;0.80;;;30.10;67.90;;;;;;5084545;28;20024;-74
2023/06/24 10:45:10;;;;;;;1.20;0.60;;;30.40;68.30;;;;;;5084545;28;20110;-74
2023/06/24 10:47:44;;;;;;;2.90;0.98;;;30.60;67.80;;;;;;5077667;28;20036;-74
2023/06/24 10:50:16;;;;;;;4.38;1.42;;;30.40;68.10;;;;;;5083513;28;20032;-73
2023/06/24 10:52:44;;;;;;;3.83;0.90;;;30.80;69.50;;;;;;5071993;28;20028;-74
2023/06/24 10:55:10;;;;;;;4.45;0.90;;;30.60;67.60;;;;;;5074802;28;20512;-74
2023/06/24 10:57:36;;;;;;;1.85;0.95;;;30.80;67.50;;;;;;5076414;28;20109;-77
2023/06/24 11:00:03;;;;;;;1.08;0.57;;;31.00;67.50;;;;;;5065191;28;20029;-74
2023/06/24 11:02:29;;;;;;;4.20;0.88;;;30.50;67.60;;;;;;5067165;28;20110;-74
2023/06/24 11:04:57;;;;;;;2.10;0.73;;;30.80;67.20;;;;;;5071852;28;20041;-73
2023/06/24 11:07:31;;;;;;;3.92;1.00;;;30.80;67.50;;;;;;5073414;28;20032;-74
2023/06/24 11:10:01;;;;;;;1.73;0.77;;;31.00;67.00;;;;;;5081650;28;20603;-73
2023/06/24 11:12:30;;;;;;;3.40;1.00;;;30.80;66.00;;;;;;5083352;28;20084;-74
2023/06/24 11:15:00;;;;;;;3.05;0.75;;;30.60;66.80;;;;;;5079514;28;20038;-74
2023/06/24 11:17:27;;;;;;;1.60;0.65;;;30.60;66.70;;;;;;5073384;28;20047;-74
2023/06/24 11:19:57;;;;;;;1.83;0.80;;;30.80;68.30;;;;;;5068837;28;20028;-74
2023/06/24 11:22:24;;;;;;;9.15;1.40;;;31.10;68.20;;;;;;5074986;28;20145;-74
2023/06/24 11:24:50;;;;;;;1.75;0.80;;;30.90;66.70;;;;;;5086255;28;20032;-75
2023/06/24 11:27:16;;;;;;;4.47;1.20;;;31.00;65.90;;;;;;5085296;28;20064;-74
2023/06/24 11:29:42;;;;;;;2.53;1.33;;;31.20;67.60;;;;;;5074095;28;20495;-73
2023/06/24 11:32:08;;;;;;;6.55;1.17;;;30.90;66.90;;;;;;5071515;28;20480;-73
2023/06/24 11:34:38;;;;;;;2.03;1.20;;;31.00;66.30;;;;;;5071408;28;20467;-73
2023/06/24 11:37:14;;;;;;;3.10;1.20;;;31.00;67.00;;;;;;5071489;28;20025;-75
2023/06/24 11:39:40;;;;;;;2.25;0.93;;;31.10;67.10;;;;;;5071251;28;20051;-74
2023/06/24 11:42:08;;;;;;;5.45;1.48;;;31.30;66.90;;;;;;5070912;28;20028;-74
2023/06/24 11:44:33;;;;;;;1.70;0.80;;;30.90;66.00;;;;;;5070790;28;20431;-74
2023/06/24 11:47:09;;;;;;;6.05;1.10;;;31.60;68.00;;;;;;5070845;28;20107;-74
2023/06/24 11:49:54;;;;;;;1.65;0.95;;;31.50;66.70;;;;;;5086543;28;20035;-74
2023/06/24 11:52:51;;;;;;;2.08;0.90;;;30.80;64.70;;;;;;5091076;28;20036;-74
2023/06/24 11:55:23;;;;;;;2.15;0.95;;;31.10;66.40;;;;;;5091220;28;20069;-74
2023/06/24 11:58:04;;;;;;;2.20;1.10;;;31.20;66.00;;;;;;5090714;28;20036;-73
2023/06/24 12:00:36;;;;;;;2.80;1.10;;;31.30;64.90;;;;;;5091211;28;20112;-74
2023/06/24 12:03:05;;;;;;;1.80;0.73;;;31.50;67.40;;;;;;5091189;28;20028;-74
2023/06/24 12:05:36;;;;;;;1.30;0.70;;;31.30;65.30;;;;;;5090998;28;20510;-74
2023/06/24 12:08:04;;;;;;;3.50;1.08;;;31.60;67.40;;;;;;5091174;28;20023;-73
2023/06/24 12:10:34;;;;;;;1.58;0.75;;;31.70;65.70;;;;;;5091321;28;20088;-74
2023/06/24 12:13:01;;;;;;;3.63;0.70;;;31.60;66.00;;;;;;5091302;28;20493;-74
2023/06/24 12:15:28;;;;;;;1.23;0.60;;;31.90;66.80;;;;;;5089919;28;20030;-74
2023/06/24 12:17:54;;;;;;;2.28;0.82;;;31.90;66.20;;;;;;5090869;28;20024;-74
2023/06/24 12:20:20;;;;;;;1.55;0.90;;;31.60;64.80;;;;;;5090543;28;20043;-74
2023/06/24 12:22:48;;;;;;;3.35;1.08;;;31.80;65.60;;;;;;5090712;28;20031;-73
2023/06/24 12:25:14;;;;;;;2.58;0.85;;;31.70;65.30;;;;;;5090516;28;20433;-74
2023/06/24 12:27:42;;;;;;;1.40;0.70;;;31.80;65.20;;;;;;5090534;28;20024;-74
2023/06/24 12:30:08;;;;;;;3.58;0.98;;;31.90;65.50;;;;;;5089968;28;20073;-74
2023/06/24 12:32:34;;;;;;;1.80;0.80;;;31.90;65.90;;;;;;5090304;28;20028;-74
2023/06/24 12:35:00;;;;;;;2.35;0.98;;;32.10;65.00;;;;;;5089661;28;20064;-74
2023/06/24 12:37:30;;;;;;;3.63;1.30;;;32.00;65.60;;;;;;5090300;28;20406;-74
2023/06/24 12:39:56;;;;;;;2.00;0.80;;;32.00;65.60;;;;;;5090088;28;20053;-74
2023/06/24 12:42:21;;;;;;;1.48;0.75;;;32.00;65.30;;;;;;5090077;28;20027;-74
2023/06/24 12:44:47;;;;;;;2.75;0.93;;;32.10;66.50;;;;;;5089875;28;20492;-74
2023/06/24 12:47:13;;;;;;;2.00;1.00;;;32.30;66.30;;;;;;5090172;28;20028;-74
2023/06/24 12:49:38;;;;;;;2.50;1.08;;;32.70;67.40;;;;;;5090028;28;20030;-74